createdAt,value
2023-02-05T00:01:43.313Z,4.65
2023-02-05T00:04:10.660Z,4.70
2023-02-05T00:06:38.399Z,4.60
2023-02-05T00:09:07.799Z,4.97
2023-02-05T00:11:34.861Z,4.25
2023-02-05T00:14:02.243Z,4.63
2023-02-05T00:16:29.731Z,4.35
2023-02-05T00:18:57.537Z,4.97
2023-02-05T00:21:24.911Z,4.53
2023-02-05T00:23:52.608Z,4.97
2023-02-05T00:26:20.014Z,4.78
2023-02-05T00:28:47.761Z,5.00
2023-02-05T00:31:17.908Z,4.63
2023-02-05T00:33:46.372Z,5.10
2023-02-05T00:36:14.329Z,5.55
2023-02-05T00:38:43.142Z,5.50
2023-02-05T00:41:11.307Z,5.45
2023-02-05T00:43:39.316Z,5.47
2023-02-05T00:46:06.974Z,5.10
2023-02-05T00:48:34.405Z,4.72
2023-02-05T00:51:01.743Z,4.53
2023-02-05T00:53:29.140Z,4.53
2023-02-05T00:55:56.155Z,4.63
2023-02-05T00:58:23.719Z,4.88
2023-02-05T01:00:51.602Z,4.75
2023-02-05T01:03:20.045Z,3.95
2023-02-05T01:05:48.272Z,4.85
2023-02-05T01:08:15.682Z,4.63
2023-02-05T01:10:48.525Z,4.13
2023-02-05T01:13:17.950Z,4.40
2023-02-05T01:15:45.706Z,3.80
2023-02-05T01:18:13.291Z,6.15
2023-02-05T01:20:42.015Z,3.70
2023-02-05T01:23:09.367Z,4.07
2023-02-05T01:25:36.897Z,3.90
2023-02-05T01:28:04.567Z,3.60
2023-02-05T01:30:31.853Z,3.30
2023-02-05T01:32:58.878Z,3.10
2023-02-05T01:35:25.943Z,2.95
2023-02-05T01:37:53.280Z,2.67
2023-02-05T01:40:20.980Z,3.15
2023-02-05T01:42:48.509Z,3.47
2023-02-05T01:45:32.855Z,3.47
2023-02-05T01:48:02.444Z,3.53
2023-02-05T01:50:57.366Z,2.67
2023-02-05T01:53:31.645Z,2.45
2023-02-05T01:56:03.543Z,2.40
2023-02-05T01:58:35.995Z,2.90
2023-02-05T02:01:03.387Z,2.63
2023-02-05T02:03:31.985Z,3.35
2023-02-05T02:05:59.432Z,3.00
2023-02-05T02:08:26.721Z,2.53
2023-02-05T02:10:55.488Z,2.97
2023-02-05T02:13:23.331Z,3.72
2023-02-05T02:15:51.374Z,4.20
2023-02-05T02:18:28.685Z,2.67
2023-02-05T02:21:04.752Z,3.08
2023-02-05T02:24:13.840Z,3.05
2023-02-05T02:27:00.709Z,2.97
2023-02-05T02:29:39.107Z,3.27
2023-02-05T02:32:16.832Z,3.17
2023-02-05T02:34:55.581Z,3.17
2023-02-05T02:37:27.319Z,3.42
2023-02-05T02:40:05.391Z,2.83
2023-02-05T02:42:49.525Z,2.95
2023-02-05T02:45:21.597Z,2.83
2023-02-05T02:47:53.530Z,3.20
2023-02-05T02:50:26.531Z,2.47
2023-02-05T02:52:56.011Z,2.13
2023-02-05T02:55:24.659Z,2.10
2023-02-05T02:57:54.324Z,2.13
2023-02-05T03:00:26.986Z,2.10
2023-02-05T03:03:01.494Z,1.98
2023-02-05T03:05:29.850Z,2.25
2023-02-05T03:08:02.806Z,2.50
2023-02-05T03:10:46.805Z,2.40
2023-02-05T03:13:15.546Z,2.70
2023-02-05T03:15:48.880Z,3.00
2023-02-05T03:18:17.658Z,3.05
2023-02-05T03:20:50.843Z,2.75
2023-02-05T03:23:18.684Z,2.72
2023-02-05T03:25:45.904Z,3.00
2023-02-05T03:28:15.244Z,2.75
2023-02-05T03:31:12.555Z,2.50
2023-02-05T03:33:55.851Z,2.10
2023-02-05T03:36:45.311Z,2.88
2023-02-05T03:39:27.833Z,2.70
2023-02-05T03:42:19.246Z,2.50
2023-02-05T03:44:47.195Z,2.45
2023-02-05T03:47:56.977Z,2.38
2023-02-05T03:50:48.194Z,2.55
2023-02-05T03:53:23.835Z,2.50
2023-02-05T03:56:17.920Z,2.85
2023-02-05T03:58:54.895Z,2.60
2023-02-05T04:01:23.128Z,2.72
2023-02-05T04:03:51.114Z,2.67
2023-02-05T04:06:19.204Z,2.33
2023-02-05T04:08:49.048Z,3.08
2023-02-05T04:11:17.157Z,2.13
2023-02-05T04:13:46.043Z,2.92
2023-02-05T04:16:13.188Z,2.45
2023-02-05T04:18:40.583Z,2.58
2023-02-05T04:21:07.782Z,2.53
2023-02-05T04:23:38.687Z,2.58
2023-02-05T04:26:06.228Z,2.85
2023-02-05T04:28:39.608Z,2.13
2023-02-05T04:31:09.567Z,2.13
2023-02-05T04:33:38.447Z,1.58
2023-02-05T04:36:06.007Z,2.40
2023-02-05T04:38:33.695Z,1.88
2023-02-05T04:41:01.009Z,2.28
2023-02-05T04:43:28.349Z,1.77
2023-02-05T04:45:55.700Z,1.70
2023-02-05T04:48:23.331Z,1.92
2023-02-05T04:50:50.241Z,2.10
2023-02-05T04:53:17.180Z,2.00
2023-02-05T04:55:44.466Z,2.28
2023-02-05T04:58:11.828Z,1.80
2023-02-05T05:00:39.154Z,2.00
2023-02-05T05:03:06.616Z,1.83
2023-02-05T05:05:36.423Z,2.20
2023-02-05T05:08:03.499Z,2.25
2023-02-05T05:10:30.908Z,2.53
2023-02-05T05:12:58.227Z,2.03
2023-02-05T05:15:25.652Z,2.80
2023-02-05T05:17:52.998Z,2.25
2023-02-05T05:20:20.341Z,2.65
2023-02-05T05:22:47.682Z,2.30
2023-02-05T05:25:14.695Z,2.45
2023-02-05T05:27:41.601Z,2.33
2023-02-05T05:30:09.202Z,2.50
2023-02-05T05:32:36.213Z,3.03
2023-02-05T05:35:03.946Z,2.85
2023-02-05T05:37:31.302Z,2.45
2023-02-05T05:40:17.060Z,2.20
2023-02-05T05:43:02.401Z,2.47
2023-02-05T05:45:29.540Z,2.00
2023-02-05T05:47:56.476Z,2.33
2023-02-05T05:50:23.766Z,1.98
2023-02-05T05:52:51.199Z,2.35
2023-02-05T05:55:18.496Z,2.60
2023-02-05T05:57:45.786Z,2.25
2023-02-05T06:00:13.371Z,2.10
2023-02-05T06:02:41.624Z,2.78
2023-02-05T06:05:08.791Z,1.80
2023-02-05T06:07:36.103Z,2.22
2023-02-05T06:10:03.194Z,1.85
2023-02-05T06:12:30.578Z,2.72
2023-02-05T06:14:57.505Z,2.25
2023-02-05T06:17:24.453Z,2.40
2023-02-05T06:19:51.338Z,2.35
2023-02-05T06:22:18.277Z,2.30
2023-02-05T06:24:45.167Z,2.25
2023-02-05T06:27:12.061Z,2.30
2023-02-05T06:29:38.965Z,2.00
2023-02-05T06:32:06.046Z,2.30
2023-02-05T06:34:33.466Z,1.98
2023-02-05T06:37:00.878Z,2.00
2023-02-05T06:39:27.920Z,2.47
2023-02-05T06:41:54.917Z,2.30
2023-02-05T06:44:21.870Z,2.25
2023-02-05T06:46:49.226Z,1.80
2023-02-05T06:49:16.553Z,2.13
2023-02-05T06:51:43.989Z,2.38
2023-02-05T06:54:10.942Z,2.20
2023-02-05T06:56:38.889Z,2.78
2023-02-05T06:59:06.197Z,2.80
2023-02-05T07:01:33.260Z,2.38
2023-02-05T07:04:01.561Z,2.60
2023-02-05T07:06:29.199Z,2.42
2023-02-05T07:08:56.652Z,2.10
2023-02-05T07:11:24.196Z,2.38
2023-02-05T07:13:51.153Z,2.08
2023-02-05T07:16:18.798Z,1.95
2023-02-05T07:18:46.021Z,2.30
2023-02-05T07:21:16.848Z,2.47
2023-02-05T07:23:43.908Z,2.35
2023-02-05T07:26:13.721Z,2.60
2023-02-05T07:28:42.152Z,2.13
2023-02-05T07:31:11.893Z,2.58
2023-02-05T07:33:46.001Z,2.55
2023-02-05T07:36:16.395Z,2.45
2023-02-05T07:38:45.329Z,2.45
2023-02-05T07:41:13.958Z,2.90
2023-02-05T07:43:41.469Z,2.40
2023-02-05T07:46:14.138Z,2.28
2023-02-05T07:48:41.599Z,3.15
2023-02-05T07:51:09.148Z,3.10
2023-02-05T07:53:36.748Z,2.95
2023-02-05T07:56:04.946Z,2.70
2023-02-05T07:58:32.483Z,3.13
2023-02-05T08:01:15.255Z,3.00
2023-02-05T08:03:42.621Z,2.88
2023-02-05T08:06:14.054Z,2.88
2023-02-05T08:08:41.580Z,2.60
2023-02-05T08:11:09.241Z,2.95
2023-02-05T08:13:37.011Z,2.80
2023-02-05T08:16:07.580Z,2.70
2023-02-05T08:18:37.521Z,2.60
2023-02-05T08:21:05.181Z,3.05
2023-02-05T08:23:41.388Z,2.42
2023-02-05T08:26:08.880Z,2.70
2023-02-05T08:28:36.306Z,2.67
2023-02-05T08:31:14.303Z,2.42
2023-02-05T08:33:41.748Z,2.58
2023-02-05T08:36:09.480Z,2.70
2023-02-05T08:38:37.061Z,2.63
2023-02-05T08:41:12.551Z,3.03
2023-02-05T08:43:45.737Z,2.55
2023-02-05T08:46:40.193Z,3.13
2023-02-05T08:49:30.796Z,2.90
2023-02-05T08:52:01.057Z,2.60
2023-02-05T08:54:28.117Z,2.83
2023-02-05T08:56:55.670Z,3.40
2023-02-05T08:59:23.385Z,2.42
2023-02-05T09:01:50.698Z,3.00
2023-02-05T09:04:20.553Z,2.88
2023-02-05T09:06:47.973Z,3.05
2023-02-05T09:09:15.630Z,2.33
2023-02-05T09:11:42.902Z,2.90
2023-02-05T09:14:10.341Z,3.03
2023-02-05T09:16:37.470Z,3.08
2023-02-05T09:19:04.944Z,2.97
2023-02-05T09:21:32.036Z,2.88
2023-02-05T09:23:59.491Z,2.78
2023-02-05T09:26:27.032Z,2.97
2023-02-05T09:28:54.179Z,3.30
2023-02-05T09:31:23.192Z,2.95
2023-02-05T09:33:53.370Z,2.80
2023-02-05T09:36:26.500Z,3.28
2023-02-05T09:39:05.000Z,2.97
2023-02-05T09:42:00.678Z,3.20
2023-02-05T09:44:48.685Z,3.78
2023-02-05T09:47:38.244Z,3.90
2023-02-05T09:50:16.240Z,3.40
2023-02-05T09:52:47.950Z,4.00
2023-02-05T09:55:21.218Z,3.55
2023-02-05T09:57:49.796Z,3.03
2023-02-05T10:00:33.326Z,2.88
2023-02-05T10:03:37.237Z,3.17
2023-02-05T10:06:05.054Z,3.05
2023-02-05T10:09:04.891Z,4.65
2023-02-05T10:11:42.134Z,4.30
2023-02-05T10:14:27.613Z,2.90
2023-02-05T10:17:29.430Z,3.17
2023-02-05T10:20:07.476Z,3.45
2023-02-05T10:23:01.952Z,3.40
2023-02-05T10:25:52.197Z,3.45
2023-02-05T10:28:56.607Z,3.65
2023-02-05T10:31:47.804Z,4.13
2023-02-05T10:34:22.035Z,3.00
2023-02-05T10:36:54.236Z,3.72
2023-02-05T10:39:26.150Z,4.18
2023-02-05T10:42:01.765Z,3.60
2023-02-05T10:44:59.899Z,4.10
2023-02-05T10:47:53.460Z,3.45
2023-02-05T10:50:52.077Z,3.75
2023-02-05T10:53:25.026Z,3.88
2023-02-05T10:55:52.714Z,4.38
2023-02-05T10:58:48.405Z,3.38
2023-02-05T11:01:26.391Z,3.80
2023-02-05T11:04:05.077Z,4.18
2023-02-05T11:06:38.266Z,4.40
2023-02-05T11:09:25.499Z,4.30
2023-02-05T11:12:02.252Z,4.13
2023-02-05T11:14:36.664Z,4.07
2023-02-05T11:17:29.045Z,4.70
2023-02-05T11:20:00.252Z,4.18
2023-02-05T11:22:32.265Z,4.00
2023-02-05T11:25:16.366Z,4.03
2023-02-05T11:27:57.773Z,5.07
2023-02-05T11:30:50.074Z,3.88
2023-02-05T11:33:27.085Z,4.32
2023-02-05T11:35:58.323Z,4.65
2023-02-05T11:38:35.982Z,5.03
2023-02-05T11:41:07.484Z,5.30
2023-02-05T11:43:34.889Z,4.57
2023-02-05T11:46:05.245Z,4.53
2023-02-05T11:51:07.728Z,4.53
2023-02-05T11:53:39.036Z,5.47
2023-02-05T11:56:13.420Z,5.30
2023-02-05T11:58:40.875Z,4.70
2023-02-05T12:01:33.966Z,5.03
2023-02-05T12:04:04.113Z,4.63
2023-02-05T12:06:37.421Z,5.57
2023-02-05T12:09:05.112Z,5.10
2023-02-05T12:12:03.796Z,5.85
2023-02-05T12:15:11.581Z,5.72
2023-02-05T12:17:51.740Z,6.85
2023-02-05T12:20:29.319Z,6.35
2023-02-05T12:23:46.895Z,6.45
2023-02-05T12:26:14.260Z,5.05
2023-02-05T12:28:59.290Z,5.68
2023-02-05T12:31:51.446Z,4.85
2023-02-05T12:34:21.356Z,6.55
2023-02-05T12:37:22.109Z,6.20
2023-02-05T12:40:01.517Z,6.00
2023-02-05T12:42:33.147Z,5.15
2023-02-05T12:45:23.934Z,5.38
2023-02-05T12:48:33.439Z,5.38
2023-02-05T12:51:27.662Z,6.93
2023-02-05T12:54:34.554Z,5.43
2023-02-05T12:57:08.216Z,4.63
2023-02-05T12:59:59.160Z,5.68
2023-02-05T13:02:36.128Z,5.60
2023-02-05T13:06:05.774Z,5.72
2023-02-05T13:08:33.090Z,5.95
2023-02-05T13:11:09.256Z,5.35
2023-02-05T13:13:58.697Z,4.78
2023-02-05T13:16:44.111Z,4.77
2023-02-05T13:19:54.240Z,5.13
2023-02-05T13:22:56.911Z,5.10
2023-02-05T13:25:51.633Z,5.55
2023-02-05T13:28:43.008Z,5.78
2023-02-05T13:31:50.383Z,4.68
2023-02-05T13:34:22.931Z,6.20
2023-02-05T13:37:13.551Z,5.05
2023-02-05T13:40:22.004Z,5.57
2023-02-05T13:43:32.046Z,5.20
2023-02-05T13:46:04.870Z,5.53
2023-02-05T13:48:53.291Z,6.38
2023-02-05T13:51:55.748Z,6.60
2023-02-05T13:54:37.932Z,6.38
2023-02-05T13:57:41.665Z,5.05
2023-02-05T14:00:14.527Z,6.53
2023-02-05T14:02:42.992Z,5.70
2023-02-05T14:05:14.719Z,6.22
2023-02-05T14:07:49.132Z,6.53
2023-02-05T14:10:31.464Z,6.47
2023-02-05T14:13:12.463Z,6.10
2023-02-05T14:15:44.749Z,6.53
2023-02-05T14:18:32.820Z,6.70
2023-02-05T14:20:59.790Z,7.00
2023-02-05T14:23:49.143Z,11.18
2023-02-05T14:26:16.976Z,11.07
2023-02-05T14:28:56.398Z,8.18
2023-02-05T14:31:49.779Z,12.40
2023-02-05T14:34:31.930Z,11.07
2023-02-05T14:36:59.664Z,10.77
2023-02-05T14:39:32.804Z,7.97
2023-02-05T14:42:05.459Z,8.52
2023-02-05T14:44:40.782Z,9.05
2023-02-05T14:47:27.117Z,11.18
2023-02-05T14:50:14.267Z,10.40
2023-02-05T14:52:49.651Z,10.82
2023-02-05T14:55:32.610Z,9.98
2023-02-05T14:58:06.030Z,11.40
2023-02-05T15:00:37.890Z,10.50
2023-02-05T15:03:15.464Z,11.02
2023-02-05T15:05:45.674Z,11.55
2023-02-05T15:08:27.681Z,12.25
2023-02-05T15:11:11.113Z,12.82
2023-02-05T15:13:38.777Z,15.30
2023-02-05T15:16:14.847Z,15.75
2023-02-05T15:18:45.844Z,13.40
2023-02-05T15:21:23.405Z,12.40
2023-02-05T15:24:13.738Z,12.25
2023-02-05T15:29:30.490Z,13.38
2023-02-05T15:32:07.157Z,12.63
2023-02-05T15:34:49.832Z,11.98
2023-02-05T15:37:37.433Z,14.93
2023-02-05T15:40:18.423Z,12.00
2023-02-05T15:42:48.735Z,10.15
2023-02-05T15:47:45.438Z,12.05
2023-02-05T15:50:15.828Z,11.25
2023-02-05T15:52:42.879Z,11.13
2023-02-05T15:55:24.547Z,10.63
2023-02-05T15:57:52.309Z,12.93
2023-02-05T16:00:29.497Z,12.13
2023-02-05T16:03:01.888Z,10.68
2023-02-05T16:05:31.947Z,11.63
2023-02-05T16:08:01.910Z,11.88
2023-02-05T16:13:14.278Z,11.88
2023-02-05T16:16:00.590Z,12.70
2023-02-05T16:18:42.642Z,13.25
2023-02-05T16:21:33.024Z,12.68
2023-02-05T16:26:46.611Z,12.20
2023-02-05T16:29:28.105Z,11.60
2023-02-05T16:32:09.439Z,11.80
2023-02-05T16:34:44.889Z,11.05
2023-02-05T16:37:18.439Z,12.55
2023-02-05T16:39:54.871Z,12.75
2023-02-05T16:42:59.172Z,12.75
2023-02-05T16:45:31.646Z,11.80
2023-02-05T16:48:22.069Z,11.98
2023-02-05T16:53:38.620Z,8.98
2023-02-05T16:56:29.763Z,10.60
2023-02-05T16:59:41.732Z,10.77
2023-02-05T17:02:42.220Z,10.85
2023-02-05T17:05:43.061Z,10.20
2023-02-05T17:08:28.178Z,10.60
2023-02-05T17:11:34.685Z,9.80
2023-02-05T17:14:54.188Z,11.25
2023-02-05T17:18:44.329Z,9.80
2023-02-05T17:21:40.225Z,10.00
2023-02-05T17:27:14.659Z,12.93
2023-02-05T17:29:52.519Z,11.43
2023-02-05T17:32:44.098Z,12.38
2023-02-05T17:35:19.617Z,11.07
2023-02-05T17:37:52.608Z,11.43
2023-02-05T17:40:24.127Z,12.48
2023-02-05T17:43:09.241Z,10.65
2023-02-05T17:45:43.105Z,11.05
2023-02-05T17:48:18.534Z,11.40
2023-02-05T17:50:51.694Z,10.48
2023-02-05T17:53:53.249Z,10.88
2023-02-05T17:56:23.761Z,9.80
2023-02-05T18:02:01.059Z,10.75
2023-02-05T18:04:47.616Z,10.23
2023-02-05T18:07:23.394Z,10.75
2023-02-05T18:09:58.873Z,10.73
2023-02-05T18:15:41.117Z,12.65
2023-02-05T18:18:27.168Z,12.70
2023-02-05T18:21:04.135Z,13.90
2023-02-05T18:23:38.969Z,12.85
2023-02-05T18:26:19.432Z,12.65
2023-02-05T18:28:51.056Z,12.80
2023-02-05T18:31:18.946Z,13.20
2023-02-05T18:33:46.481Z,12.93
2023-02-05T18:36:15.410Z,12.77
2023-02-05T18:38:45.700Z,12.35
2023-02-05T18:41:13.391Z,11.20
2023-02-05T18:43:44.112Z,11.00
2023-02-05T18:46:13.372Z,10.50
2023-02-05T18:48:41.223Z,10.80
2023-02-05T18:51:09.754Z,11.70
2023-02-05T18:53:39.022Z,10.95
2023-02-05T18:56:14.688Z,13.00
2023-02-05T18:58:42.706Z,11.77
2023-02-05T19:01:10.207Z,11.80
2023-02-05T19:03:38.161Z,11.80
2023-02-05T19:06:06.012Z,11.38
2023-02-05T19:08:33.453Z,12.30
2023-02-05T19:11:00.824Z,11.57
2023-02-05T19:13:28.412Z,11.95
2023-02-05T19:15:55.763Z,11.73
2023-02-05T19:18:25.637Z,11.93
2023-02-05T19:20:52.937Z,11.55
2023-02-05T19:23:20.584Z,11.65
2023-02-05T19:25:48.096Z,10.90
2023-02-05T19:28:19.103Z,11.85
2023-02-05T19:30:46.732Z,12.02
2023-02-05T19:33:14.184Z,11.93
2023-02-05T19:35:41.630Z,11.23
2023-02-05T19:38:11.759Z,13.00
2023-02-05T19:40:38.924Z,11.50
2023-02-05T19:43:07.221Z,12.02
2023-02-05T19:45:39.509Z,14.23
2023-02-05T19:48:06.972Z,13.07
2023-02-05T19:50:35.442Z,11.75
2023-02-05T19:53:02.727Z,12.40
2023-02-05T19:55:30.224Z,12.30
2023-02-05T19:57:57.587Z,11.65
2023-02-05T20:00:43.735Z,11.95
2023-02-05T20:03:15.844Z,12.07
2023-02-05T20:05:48.707Z,12.38
2023-02-05T20:08:16.031Z,11.82
2023-02-05T20:10:43.276Z,11.32
2023-02-05T20:13:11.139Z,12.18
2023-02-05T20:15:39.829Z,12.07
2023-02-05T20:18:08.668Z,12.73
2023-02-05T20:20:53.630Z,12.02
2023-02-05T20:23:21.271Z,12.10
2023-02-05T20:26:01.205Z,13.23
2023-02-05T20:28:28.372Z,11.25
2023-02-05T20:31:14.592Z,11.50
2023-02-05T20:33:43.302Z,14.43
2023-02-05T20:36:12.472Z,12.43
2023-02-05T20:38:41.488Z,13.15
2023-02-05T20:41:16.911Z,12.63
2023-02-05T20:43:44.991Z,11.95
2023-02-05T20:46:16.937Z,12.80
2023-02-05T20:48:46.018Z,13.77
2023-02-05T20:51:16.027Z,12.23
2023-02-05T20:53:43.520Z,12.27
2023-02-05T20:56:19.527Z,11.70
2023-02-05T20:58:48.006Z,13.05
2023-02-05T21:01:18.894Z,13.40
2023-02-05T21:03:48.603Z,13.73
2023-02-05T21:06:16.488Z,13.18
2023-02-05T21:08:46.112Z,12.65
2023-02-05T21:11:15.544Z,14.02
2023-02-05T21:13:44.021Z,12.52
2023-02-05T21:16:12.360Z,13.85
2023-02-05T21:18:40.457Z,14.10
2023-02-05T21:21:14.189Z,13.77
2023-02-05T21:23:42.242Z,12.98
2023-02-05T21:26:16.916Z,13.77
2023-02-05T21:28:43.862Z,11.93
2023-02-05T21:31:10.884Z,13.05
2023-02-05T21:33:38.282Z,12.48
2023-02-05T21:36:07.589Z,12.43
2023-02-05T21:38:36.096Z,14.32
2023-02-05T21:41:35.975Z,12.70
2023-02-05T21:44:06.515Z,12.23
2023-02-05T21:46:33.651Z,12.15
2023-02-05T21:49:02.341Z,13.82
2023-02-05T21:51:31.883Z,13.45
2023-02-05T21:54:01.146Z,13.30
2023-02-05T21:56:34.791Z,12.80
2023-02-05T21:59:01.922Z,12.70
2023-02-05T22:01:31.894Z,12.25
2023-02-05T22:04:18.253Z,13.15
2023-02-05T22:06:45.632Z,12.70
2023-02-05T22:09:17.312Z,12.75
2023-02-05T22:12:01.533Z,12.60
2023-02-05T22:14:43.760Z,12.45
2023-02-05T22:17:10.706Z,13.18
2023-02-05T22:19:38.195Z,10.98
2023-02-05T22:22:05.560Z,12.95
2023-02-05T22:24:32.690Z,13.43
2023-02-05T22:27:00.122Z,14.95
2023-02-05T22:29:27.521Z,12.93
2023-02-05T22:31:55.028Z,13.27
2023-02-05T22:34:22.437Z,12.98
2023-02-05T22:36:49.338Z,13.85
2023-02-05T22:39:16.637Z,13.55
2023-02-05T22:41:44.408Z,13.27
2023-02-05T22:44:12.375Z,13.70
2023-02-05T22:46:42.229Z,13.98
2023-02-05T22:49:11.448Z,14.55
2023-02-05T22:51:40.419Z,13.45
2023-02-05T22:54:11.054Z,17.45
2023-02-05T22:56:38.642Z,14.65
2023-02-05T22:59:06.396Z,14.65
2023-02-05T23:01:35.481Z,13.40
2023-02-05T23:04:04.247Z,14.35
2023-02-05T23:06:36.896Z,13.55
2023-02-05T23:09:13.766Z,14.30
2023-02-05T23:11:41.149Z,14.75
2023-02-05T23:14:09.474Z,14.00
2023-02-05T23:16:39.331Z,15.00
2023-02-05T23:19:14.871Z,15.93
2023-02-05T23:21:42.198Z,15.07
2023-02-05T23:24:09.814Z,14.15
2023-02-05T23:26:43.880Z,14.38
2023-02-05T23:29:18.594Z,15.15
2023-02-05T23:31:48.858Z,15.65
2023-02-05T23:34:16.220Z,15.27
2023-02-05T23:36:43.669Z,14.77
2023-02-05T23:39:11.225Z,14.27
2023-02-05T23:41:40.037Z,14.02
2023-02-05T23:44:13.477Z,13.57
2023-02-05T23:46:44.673Z,13.85
2023-02-05T23:49:12.238Z,14.43
2023-02-05T23:51:39.883Z,16.30
2023-02-05T23:54:08.151Z,15.15
2023-02-05T23:56:35.095Z,15.32
2023-02-05T23:59:02.581Z,15.50
